sensor_id;sensor_type;location;lat;lon;timestamp;P1;durP1;ratioP1;P2;durP2;ratioP2
29548;SDS011;16487;53.094;8.800;2022-09-24T00:02:29;56.87;;;48.43;;
29548;SDS011;16487;53.094;8.800;2022-09-24T00:04:57;59.90;;;51.33;;
29548;SDS011;16487;53.094;8.800;2022-09-24T00:07:26;56.57;;;49.93;;
29548;SDS011;16487;53.094;8.800;2022-09-24T00:09:53;60.73;;;49.97;;
29548;SDS011;16487;53.094;8.800;2022-09-24T00:12:21;66.20;;;53.23;;
29548;SDS011;16487;53.094;8.800;2022-09-24T00:14:48;67.10;;;55.60;;
29548;SDS011;16487;53.094;8.800;2022-09-24T00:17:15;63.90;;;51.20;;
29548;SDS011;16487;53.094;8.800;2022-09-24T00:19:42;66.60;;;52.77;;
29548;SDS011;16487;53.094;8.800;2022-09-24T00:22:10;61.83;;;53.80;;
29548;SDS011;16487;53.094;8.800;2022-09-24T00:24:38;62.30;;;52.40;;
29548;SDS011;16487;53.094;8.800;2022-09-24T00:27:06;62.63;;;53.90;;
29548;SDS011;16487;53.094;8.800;2022-09-24T00:29:33;57.17;;;49.33;;
29548;SDS011;16487;53.094;8.800;2022-09-24T00:32:01;61.90;;;49.97;;
29548;SDS011;16487;53.094;8.800;2022-09-24T00:34:29;55.80;;;49.07;;
29548;SDS011;16487;53.094;8.800;2022-09-24T00:36:57;52.13;;;45.50;;
29548;SDS011;16487;53.094;8.800;2022-09-24T00:39:24;56.53;;;47.17;;
29548;SDS011;16487;53.094;8.800;2022-09-24T00:41:53;57.83;;;50.10;;
29548;SDS011;16487;53.094;8.800;2022-09-24T00:44:44;56.20;;;48.17;;
29548;SDS011;16487;53.094;8.800;2022-09-24T00:47:16;60.43;;;47.40;;
29548;SDS011;16487;53.094;8.800;2022-09-24T00:49:52;62.47;;;47.53;;
29548;SDS011;16487;53.094;8.800;2022-09-24T00:52:25;62.13;;;48.50;;
29548;SDS011;16487;53.094;8.800;2022-09-24T00:54:52;59.27;;;50.70;;
29548;SDS011;16487;53.094;8.800;2022-09-24T00:57:22;67.00;;;50.50;;
29548;SDS011;16487;53.094;8.800;2022-09-24T00:59:50;59.30;;;48.73;;
29548;SDS011;16487;53.094;8.800;2022-09-24T01:02:18;62.03;;;47.53;;
29548;SDS011;16487;53.094;8.800;2022-09-24T01:04:45;63.33;;;50.80;;
29548;SDS011;16487;53.094;8.800;2022-09-24T01:07:13;60.73;;;49.10;;
29548;SDS011;16487;53.094;8.800;2022-09-24T01:09:40;54.63;;;48.47;;
29548;SDS011;16487;53.094;8.800;2022-09-24T01:12:09;67.50;;;49.23;;
29548;SDS011;16487;53.094;8.800;2022-09-24T01:14:51;55.03;;;45.97;;
29548;SDS011;16487;53.094;8.800;2022-09-24T01:17:31;52.97;;;44.73;;
29548;SDS011;16487;53.094;8.800;2022-09-24T01:23:26;55.23;;;45.93;;
29548;SDS011;16487;53.094;8.800;2022-09-24T01:26:17;59.10;;;47.40;;
29548;SDS011;16487;53.094;8.800;2022-09-24T01:29:02;58.53;;;47.70;;
29548;SDS011;16487;53.094;8.800;2022-09-24T01:31:44;57.83;;;45.60;;
29548;SDS011;16487;53.094;8.800;2022-09-24T01:34:19;52.80;;;43.87;;
29548;SDS011;16487;53.094;8.800;2022-09-24T01:36:52;54.03;;;45.00;;
29548;SDS011;16487;53.094;8.800;2022-09-24T01:39:22;60.00;;;48.20;;
29548;SDS011;16487;53.094;8.800;2022-09-24T01:41:50;59.23;;;46.70;;
29548;SDS011;16487;53.094;8.800;2022-09-24T01:44:20;61.03;;;47.40;;
29548;SDS011;16487;53.094;8.800;2022-09-24T01:46:48;60.50;;;49.40;;
29548;SDS011;16487;53.094;8.800;2022-09-24T01:49:15;54.20;;;45.57;;
29548;SDS011;16487;53.094;8.800;2022-09-24T01:51:44;61.33;;;47.20;;
29548;SDS011;16487;53.094;8.800;2022-09-24T01:54:15;56.77;;;46.73;;
29548;SDS011;16487;53.094;8.800;2022-09-24T01:56:49;56.00;;;45.63;;
29548;SDS011;16487;53.094;8.800;2022-09-24T01:59:21;64.20;;;49.20;;
29548;SDS011;16487;53.094;8.800;2022-09-24T02:01:56;56.20;;;47.40;;
29548;SDS011;16487;53.094;8.800;2022-09-24T02:04:28;54.80;;;46.60;;
29548;SDS011;16487;53.094;8.800;2022-09-24T02:07:03;65.43;;;50.07;;
29548;SDS011;16487;53.094;8.800;2022-09-24T02:09:33;59.37;;;48.17;;
29548;SDS011;16487;53.094;8.800;2022-09-24T02:12:03;57.67;;;45.60;;
29548;SDS011;16487;53.094;8.800;2022-09-24T02:14:38;56.90;;;47.00;;
29548;SDS011;16487;53.094;8.800;2022-09-24T02:17:08;65.97;;;47.13;;
29548;SDS011;16487;53.094;8.800;2022-09-24T02:19:37;59.53;;;45.13;;
29548;SDS011;16487;53.094;8.800;2022-09-24T02:22:07;61.47;;;46.27;;
29548;SDS011;16487;53.094;8.800;2022-09-24T02:24:40;63.67;;;50.83;;
29548;SDS011;16487;53.094;8.800;2022-09-24T02:27:11;60.40;;;47.63;;
29548;SDS011;16487;53.094;8.800;2022-09-24T02:29:40;61.97;;;49.67;;
29548;SDS011;16487;53.094;8.800;2022-09-24T02:32:08;64.03;;;49.57;;
29548;SDS011;16487;53.094;8.800;2022-09-24T02:34:40;64.20;;;49.87;;
29548;SDS011;16487;53.094;8.800;2022-09-24T02:37:11;70.97;;;51.53;;
29548;SDS011;16487;53.094;8.800;2022-09-24T02:39:40;69.23;;;55.70;;
29548;SDS011;16487;53.094;8.800;2022-09-24T02:42:08;69.33;;;54.70;;
29548;SDS011;16487;53.094;8.800;2022-09-24T02:44:38;67.67;;;51.87;;
29548;SDS011;16487;53.094;8.800;2022-09-24T02:47:07;66.90;;;53.27;;
29548;SDS011;16487;53.094;8.800;2022-09-24T02:49:34;66.30;;;51.70;;
29548;SDS011;16487;53.094;8.800;2022-09-24T02:52:01;65.27;;;51.53;;
29548;SDS011;16487;53.094;8.800;2022-09-24T02:54:29;75.53;;;54.20;;
29548;SDS011;16487;53.094;8.800;2022-09-24T02:56:57;63.87;;;51.67;;
29548;SDS011;16487;53.094;8.800;2022-09-24T02:59:27;69.97;;;52.53;;
29548;SDS011;16487;53.094;8.800;2022-09-24T03:01:57;71.47;;;54.27;;
29548;SDS011;16487;53.094;8.800;2022-09-24T03:04:26;67.43;;;54.73;;
29548;SDS011;16487;53.094;8.800;2022-09-24T03:06:53;64.60;;;53.70;;
29548;SDS011;16487;53.094;8.800;2022-09-24T03:09:21;69.50;;;53.70;;
29548;SDS011;16487;53.094;8.800;2022-09-24T03:11:48;70.20;;;54.37;;
29548;SDS011;16487;53.094;8.800;2022-09-24T03:14:15;60.33;;;47.80;;
29548;SDS011;16487;53.094;8.800;2022-09-24T03:16:43;55.37;;;45.83;;
29548;SDS011;16487;53.094;8.800;2022-09-24T03:19:10;61.20;;;48.90;;
29548;SDS011;16487;53.094;8.800;2022-09-24T03:21:39;57.03;;;49.13;;
29548;SDS011;16487;53.094;8.800;2022-09-24T03:24:06;57.60;;;47.70;;
29548;SDS011;16487;53.094;8.800;2022-09-24T03:26:33;59.00;;;46.63;;
29548;SDS011;16487;53.094;8.800;2022-09-24T03:29:00;54.80;;;44.13;;
29548;SDS011;16487;53.094;8.800;2022-09-24T03:31:28;58.67;;;47.73;;
29548;SDS011;16487;53.094;8.800;2022-09-24T03:33:55;52.60;;;44.20;;
29548;SDS011;16487;53.094;8.800;2022-09-24T03:36:23;54.57;;;44.90;;
29548;SDS011;16487;53.094;8.800;2022-09-24T03:38:53;55.00;;;44.07;;
29548;SDS011;16487;53.094;8.800;2022-09-24T03:41:21;51.87;;;43.40;;
29548;SDS011;16487;53.094;8.800;2022-09-24T03:43:49;51.70;;;42.10;;
29548;SDS011;16487;53.094;8.800;2022-09-24T03:46:17;56.63;;;44.20;;
29548;SDS011;16487;53.094;8.800;2022-09-24T03:48:44;54.83;;;41.90;;
29548;SDS011;16487;53.094;8.800;2022-09-24T03:51:12;51.17;;;42.60;;
29548;SDS011;16487;53.094;8.800;2022-09-24T03:53:40;49.63;;;39.20;;
29548;SDS011;16487;53.094;8.800;2022-09-24T03:56:09;47.73;;;39.23;;
29548;SDS011;16487;53.094;8.800;2022-09-24T03:58:37;46.40;;;39.70;;
29548;SDS011;16487;53.094;8.800;2022-09-24T04:01:04;47.13;;;36.80;;
29548;SDS011;16487;53.094;8.800;2022-09-24T04:03:32;52.57;;;39.10;;
29548;SDS011;16487;53.094;8.800;2022-09-24T04:06:00;51.27;;;40.30;;
29548;SDS011;16487;53.094;8.800;2022-09-24T04:08:27;50.53;;;40.73;;
29548;SDS011;16487;53.094;8.800;2022-09-24T04:10:55;49.70;;;39.33;;
29548;SDS011;16487;53.094;8.800;2022-09-24T04:13:23;46.03;;;39.07;;
29548;SDS011;16487;53.094;8.800;2022-09-24T04:15:52;49.43;;;42.53;;
29548;SDS011;16487;53.094;8.800;2022-09-24T04:18:19;49.13;;;41.60;;
29548;SDS011;16487;53.094;8.800;2022-09-24T04:20:47;48.50;;;38.80;;
29548;SDS011;16487;53.094;8.800;2022-09-24T04:23:14;48.80;;;38.97;;
29548;SDS011;16487;53.094;8.800;2022-09-24T04:25:41;46.37;;;38.70;;
29548;SDS011;16487;53.094;8.800;2022-09-24T04:28:09;53.07;;;41.40;;
29548;SDS011;16487;53.094;8.800;2022-09-24T04:30:38;53.43;;;40.83;;
29548;SDS011;16487;53.094;8.800;2022-09-24T04:33:06;51.87;;;40.80;;
29548;SDS011;16487;53.094;8.800;2022-09-24T04:35:35;55.00;;;43.17;;
29548;SDS011;16487;53.094;8.800;2022-09-24T04:38:02;54.20;;;41.57;;
29548;SDS011;16487;53.094;8.800;2022-09-24T04:40:30;52.07;;;43.07;;
29548;SDS011;16487;53.094;8.800;2022-09-24T04:42:58;58.17;;;44.30;;
29548;SDS011;16487;53.094;8.800;2022-09-24T04:45:25;53.87;;;43.70;;
29548;SDS011;16487;53.094;8.800;2022-09-24T04:47:54;55.67;;;43.00;;
29548;SDS011;16487;53.094;8.800;2022-09-24T04:50:21;54.87;;;44.83;;
29548;SDS011;16487;53.094;8.800;2022-09-24T04:52:51;56.47;;;45.00;;
29548;SDS011;16487;53.094;8.800;2022-09-24T04:55:19;67.90;;;47.47;;
29548;SDS011;16487;53.094;8.800;2022-09-24T04:57:47;61.27;;;47.13;;
29548;SDS011;16487;53.094;8.800;2022-09-24T05:00:15;61.83;;;46.40;;
29548;SDS011;16487;53.094;8.800;2022-09-24T05:02:44;71.53;;;47.90;;
29548;SDS011;16487;53.094;8.800;2022-09-24T05:05:13;67.67;;;49.83;;
29548;SDS011;16487;53.094;8.800;2022-09-24T05:07:40;69.57;;;50.03;;
29548;SDS011;16487;53.094;8.800;2022-09-24T05:10:08;69.50;;;51.63;;
29548;SDS011;16487;53.094;8.800;2022-09-24T05:12:35;69.43;;;52.00;;
29548;SDS011;16487;53.094;8.800;2022-09-24T05:15:03;79.10;;;54.07;;
29548;SDS011;16487;53.094;8.800;2022-09-24T05:17:31;76.43;;;55.37;;
29548;SDS011;16487;53.094;8.800;2022-09-24T05:19:58;75.13;;;56.50;;
29548;SDS011;16487;53.094;8.800;2022-09-24T05:22:27;80.30;;;55.97;;
29548;SDS011;16487;53.094;8.800;2022-09-24T05:24:54;82.17;;;56.40;;
29548;SDS011;16487;53.094;8.800;2022-09-24T05:27:21;81.23;;;58.67;;
29548;SDS011;16487;53.094;8.800;2022-09-24T05:29:48;80.20;;;55.87;;
29548;SDS011;16487;53.094;8.800;2022-09-24T05:32:16;81.30;;;55.13;;
29548;SDS011;16487;53.094;8.800;2022-09-24T05:34:45;85.27;;;57.17;;
29548;SDS011;16487;53.094;8.800;2022-09-24T05:37:13;88.70;;;59.40;;
29548;SDS011;16487;53.094;8.800;2022-09-24T05:39:42;86.83;;;61.30;;
29548;SDS011;16487;53.094;8.800;2022-09-24T05:42:09;82.13;;;60.00;;
29548;SDS011;16487;53.094;8.800;2022-09-24T05:44:37;81.57;;;60.30;;
29548;SDS011;16487;53.094;8.800;2022-09-24T05:47:04;80.73;;;58.57;;
29548;SDS011;16487;53.094;8.800;2022-09-24T05:49:32;85.27;;;62.63;;
29548;SDS011;16487;53.094;8.800;2022-09-24T05:51:59;93.27;;;63.17;;
29548;SDS011;16487;53.094;8.800;2022-09-24T05:54:26;88.93;;;64.30;;
29548;SDS011;16487;53.094;8.800;2022-09-24T05:56:55;86.60;;;59.83;;
29548;SDS011;16487;53.094;8.800;2022-09-24T05:59:22;82.07;;;61.30;;
29548;SDS011;16487;53.094;8.800;2022-09-24T06:01:49;74.40;;;56.07;;
29548;SDS011;16487;53.094;8.800;2022-09-24T06:04:18;73.93;;;56.03;;
29548;SDS011;16487;53.094;8.800;2022-09-24T06:06:45;82.33;;;61.47;;
29548;SDS011;16487;53.094;8.800;2022-09-24T06:09:12;93.70;;;67.37;;
29548;SDS011;16487;53.094;8.800;2022-09-24T06:11:39;80.27;;;58.03;;
29548;SDS011;16487;53.094;8.800;2022-09-24T06:14:08;77.47;;;57.70;;
29548;SDS011;16487;53.094;8.800;2022-09-24T06:16:35;77.13;;;59.20;;
29548;SDS011;16487;53.094;8.800;2022-09-24T06:19:03;80.53;;;59.67;;
29548;SDS011;16487;53.094;8.800;2022-09-24T06:21:30;76.73;;;60.43;;
29548;SDS011;16487;53.094;8.800;2022-09-24T06:23:58;74.83;;;57.20;;
29548;SDS011;16487;53.094;8.800;2022-09-24T06:26:25;77.90;;;53.87;;
29548;SDS011;16487;53.094;8.800;2022-09-24T06:28:52;78.13;;;58.83;;
29548;SDS011;16487;53.094;8.800;2022-09-24T06:31:21;78.30;;;58.13;;
29548;SDS011;16487;53.094;8.800;2022-09-24T06:33:48;70.70;;;54.60;;
29548;SDS011;16487;53.094;8.800;2022-09-24T06:36:15;80.43;;;58.80;;
29548;SDS011;16487;53.094;8.800;2022-09-24T06:38:43;79.77;;;54.80;;
29548;SDS011;16487;53.094;8.800;2022-09-24T06:41:10;72.10;;;53.67;;
29548;SDS011;16487;53.094;8.800;2022-09-24T06:43:37;70.00;;;54.47;;
29548;SDS011;16487;53.094;8.800;2022-09-24T06:46:04;68.47;;;52.90;;
29548;SDS011;16487;53.094;8.800;2022-09-24T06:48:33;68.60;;;54.97;;
29548;SDS011;16487;53.094;8.800;2022-09-24T06:51:02;75.07;;;54.00;;
29548;SDS011;16487;53.094;8.800;2022-09-24T06:53:30;72.80;;;54.03;;
29548;SDS011;16487;53.094;8.800;2022-09-24T06:55:57;74.10;;;54.60;;
29548;SDS011;16487;53.094;8.800;2022-09-24T06:58:25;73.70;;;55.43;;
29548;SDS011;16487;53.094;8.800;2022-09-24T07:00:53;70.47;;;55.07;;
29548;SDS011;16487;53.094;8.800;2022-09-24T07:03:21;72.33;;;54.27;;
29548;SDS011;16487;53.094;8.800;2022-09-24T07:05:50;74.20;;;54.50;;
29548;SDS011;16487;53.094;8.800;2022-09-24T07:08:17;74.10;;;55.07;;
29548;SDS011;16487;53.094;8.800;2022-09-24T07:10:45;76.37;;;56.00;;
29548;SDS011;16487;53.094;8.800;2022-09-24T07:13:13;73.70;;;56.77;;
29548;SDS011;16487;53.094;8.800;2022-09-24T07:15:41;77.30;;;57.60;;
29548;SDS011;16487;53.094;8.800;2022-09-24T07:18:09;79.20;;;56.30;;
29548;SDS011;16487;53.094;8.800;2022-09-24T07:20:37;81.57;;;56.03;;
29548;SDS011;16487;53.094;8.800;2022-09-24T07:23:07;74.77;;;55.97;;
29548;SDS011;16487;53.094;8.800;2022-09-24T07:25:35;74.27;;;55.40;;
29548;SDS011;16487;53.094;8.800;2022-09-24T07:28:04;71.10;;;53.73;;
29548;SDS011;16487;53.094;8.800;2022-09-24T07:30:33;77.27;;;55.53;;
29548;SDS011;16487;53.094;8.800;2022-09-24T07:33:01;67.10;;;52.53;;
29548;SDS011;16487;53.094;8.800;2022-09-24T07:35:29;73.80;;;55.07;;
29548;SDS011;16487;53.094;8.800;2022-09-24T07:37:57;66.90;;;51.93;;
29548;SDS011;16487;53.094;8.800;2022-09-24T07:40:27;71.90;;;54.97;;
29548;SDS011;16487;53.094;8.800;2022-09-24T07:42:55;72.30;;;56.07;;
29548;SDS011;16487;53.094;8.800;2022-09-24T07:45:23;71.40;;;54.27;;
29548;SDS011;16487;53.094;8.800;2022-09-24T07:47:56;67.10;;;53.13;;
29548;SDS011;16487;53.094;8.800;2022-09-24T07:50:24;72.20;;;54.80;;
29548;SDS011;16487;53.094;8.800;2022-09-24T07:52:52;79.90;;;58.40;;
29548;SDS011;16487;53.094;8.800;2022-09-24T07:55:19;76.77;;;58.17;;
29548;SDS011;16487;53.094;8.800;2022-09-24T07:57:48;77.00;;;56.10;;
29548;SDS011;16487;53.094;8.800;2022-09-24T08:00:16;65.50;;;54.37;;
29548;SDS011;16487;53.094;8.800;2022-09-24T08:02:45;68.80;;;53.40;;
29548;SDS011;16487;53.094;8.800;2022-09-24T08:05:13;69.43;;;54.63;;
29548;SDS011;16487;53.094;8.800;2022-09-24T08:07:41;69.70;;;53.60;;
29548;SDS011;16487;53.094;8.800;2022-09-24T08:10:08;76.70;;;58.83;;
29548;SDS011;16487;53.094;8.800;2022-09-24T08:12:36;104.03;;;70.33;;
29548;SDS011;16487;53.094;8.800;2022-09-24T08:15:05;79.87;;;56.60;;
29548;SDS011;16487;53.094;8.800;2022-09-24T08:17:32;66.47;;;51.60;;
29548;SDS011;16487;53.094;8.800;2022-09-24T08:20:00;73.33;;;55.07;;
29548;SDS011;16487;53.094;8.800;2022-09-24T08:22:27;70.80;;;55.97;;
29548;SDS011;16487;53.094;8.800;2022-09-24T08:24:55;76.07;;;55.70;;
29548;SDS011;16487;53.094;8.800;2022-09-24T08:27:22;71.10;;;55.83;;
29548;SDS011;16487;53.094;8.800;2022-09-24T08:29:50;72.07;;;56.10;;
29548;SDS011;16487;53.094;8.800;2022-09-24T08:32:18;81.70;;;58.27;;
29548;SDS011;16487;53.094;8.800;2022-09-24T08:34:46;86.33;;;60.10;;
29548;SDS011;16487;53.094;8.800;2022-09-24T08:37:13;80.30;;;59.30;;
29548;SDS011;16487;53.094;8.800;2022-09-24T08:39:40;84.90;;;59.67;;
29548;SDS011;16487;53.094;8.800;2022-09-24T08:42:11;78.10;;;57.83;;
29548;SDS011;16487;53.094;8.800;2022-09-24T08:44:54;80.90;;;58.57;;
29548;SDS011;16487;53.094;8.800;2022-09-24T08:47:29;77.17;;;57.57;;
29548;SDS011;16487;53.094;8.800;2022-09-24T08:50:05;71.90;;;55.70;;
29548;SDS011;16487;53.094;8.800;2022-09-24T08:52:45;72.17;;;55.40;;
29548;SDS011;16487;53.094;8.800;2022-09-24T08:55:20;70.97;;;54.50;;
29548;SDS011;16487;53.094;8.800;2022-09-24T08:57:55;76.90;;;57.90;;
29548;SDS011;16487;53.094;8.800;2022-09-24T09:00:24;75.40;;;54.90;;
29548;SDS011;16487;53.094;8.800;2022-09-24T09:02:57;74.70;;;56.47;;
29548;SDS011;16487;53.094;8.800;2022-09-24T09:05:37;71.90;;;57.17;;
29548;SDS011;16487;53.094;8.800;2022-09-24T09:08:17;77.47;;;56.47;;
29548;SDS011;16487;53.094;8.800;2022-09-24T09:11:10;65.93;;;52.50;;
29548;SDS011;16487;53.094;8.800;2022-09-24T09:13:41;74.73;;;54.00;;
29548;SDS011;16487;53.094;8.800;2022-09-24T09:16:17;66.57;;;52.93;;
29548;SDS011;16487;53.094;8.800;2022-09-24T09:18:51;114.03;;;76.60;;
29548;SDS011;16487;53.094;8.800;2022-09-24T09:21:24;70.23;;;54.30;;
29548;SDS011;16487;53.094;8.800;2022-09-24T09:23:55;67.90;;;51.43;;
29548;SDS011;16487;53.094;8.800;2022-09-24T09:26:25;67.17;;;50.67;;
29548;SDS011;16487;53.094;8.800;2022-09-24T09:28:54;70.50;;;52.23;;
29548;SDS011;16487;53.094;8.800;2022-09-24T09:31:27;62.47;;;49.50;;
29548;SDS011;16487;53.094;8.800;2022-09-24T09:34:11;90.00;;;66.33;;
29548;SDS011;16487;53.094;8.800;2022-09-24T09:36:54;66.30;;;50.30;;
29548;SDS011;16487;53.094;8.800;2022-09-24T09:39:31;65.13;;;50.90;;
29548;SDS011;16487;53.094;8.800;2022-09-24T09:42:07;67.13;;;49.23;;
29548;SDS011;16487;53.094;8.800;2022-09-24T09:44:46;61.00;;;43.27;;
29548;SDS011;16487;53.094;8.800;2022-09-24T09:47:16;61.73;;;49.30;;
29548;SDS011;16487;53.094;8.800;2022-09-24T09:49:52;61.57;;;46.27;;
29548;SDS011;16487;53.094;8.800;2022-09-24T09:52:24;62.67;;;47.67;;
29548;SDS011;16487;53.094;8.800;2022-09-24T09:54:54;63.00;;;44.97;;
29548;SDS011;16487;53.094;8.800;2022-09-24T09:57:22;68.83;;;51.87;;
29548;SDS011;16487;53.094;8.800;2022-09-24T09:59:52;64.57;;;48.73;;
29548;SDS011;16487;53.094;8.800;2022-09-24T10:02:21;70.13;;;51.50;;
29548;SDS011;16487;53.094;8.800;2022-09-24T10:04:53;65.20;;;50.27;;
29548;SDS011;16487;53.094;8.800;2022-09-24T10:07:22;61.97;;;48.70;;
29548;SDS011;16487;53.094;8.800;2022-09-24T10:09:57;61.70;;;50.13;;
29548;SDS011;16487;53.094;8.800;2022-09-24T10:12:27;60.90;;;46.80;;
29548;SDS011;16487;53.094;8.800;2022-09-24T10:14:58;58.00;;;45.03;;
29548;SDS011;16487;53.094;8.800;2022-09-24T10:17:28;59.77;;;46.30;;
29548;SDS011;16487;53.094;8.800;2022-09-24T10:20:05;58.93;;;47.33;;
29548;SDS011;16487;53.094;8.800;2022-09-24T10:22:35;60.20;;;46.57;;
29548;SDS011;16487;53.094;8.800;2022-09-24T10:25:03;64.90;;;48.47;;
29548;SDS011;16487;53.094;8.800;2022-09-24T10:27:33;60.23;;;46.80;;
29548;SDS011;16487;53.094;8.800;2022-09-24T10:30:03;67.90;;;49.90;;
29548;SDS011;16487;53.094;8.800;2022-09-24T10:32:39;56.57;;;43.77;;
29548;SDS011;16487;53.094;8.800;2022-09-24T10:35:19;57.20;;;46.23;;
29548;SDS011;16487;53.094;8.800;2022-09-24T10:37:49;55.13;;;44.50;;
29548;SDS011;16487;53.094;8.800;2022-09-24T10:40:19;59.20;;;44.70;;
29548;SDS011;16487;53.094;8.800;2022-09-24T10:42:53;52.53;;;42.87;;
29548;SDS011;16487;53.094;8.800;2022-09-24T10:45:22;49.57;;;40.50;;
29548;SDS011;16487;53.094;8.800;2022-09-24T10:48:02;51.37;;;40.20;;
29548;SDS011;16487;53.094;8.800;2022-09-24T10:50:40;52.50;;;42.57;;
29548;SDS011;16487;53.094;8.800;2022-09-24T10:53:13;51.10;;;39.17;;
29548;SDS011;16487;53.094;8.800;2022-09-24T10:55:48;48.90;;;42.77;;
29548;SDS011;16487;53.094;8.800;2022-09-24T10:58:28;49.03;;;41.47;;
29548;SDS011;16487;53.094;8.800;2022-09-24T11:01:15;44.87;;;39.50;;
29548;SDS011;16487;53.094;8.800;2022-09-24T11:06:45;46.67;;;39.77;;
29548;SDS011;16487;53.094;8.800;2022-09-24T11:09:24;45.87;;;40.77;;
29548;SDS011;16487;53.094;8.800;2022-09-24T11:12:02;47.63;;;39.60;;
29548;SDS011;16487;53.094;8.800;2022-09-24T11:14:43;45.83;;;39.10;;
29548;SDS011;16487;53.094;8.800;2022-09-24T11:17:31;44.03;;;37.07;;
29548;SDS011;16487;53.094;8.800;2022-09-24T11:23:03;39.30;;;33.53;;
29548;SDS011;16487;53.094;8.800;2022-09-24T11:25:43;48.70;;;39.20;;
29548;SDS011;16487;53.094;8.800;2022-09-24T11:28:27;42.97;;;37.17;;
29548;SDS011;16487;53.094;8.800;2022-09-24T11:31:08;49.10;;;38.37;;
29548;SDS011;16487;53.094;8.800;2022-09-24T11:33:49;41.47;;;34.83;;
29548;SDS011;16487;53.094;8.800;2022-09-24T11:36:34;40.13;;;34.90;;
29548;SDS011;16487;53.094;8.800;2022-09-24T11:39:16;38.20;;;33.63;;
29548;SDS011;16487;53.094;8.800;2022-09-24T11:41:55;44.70;;;34.10;;
29548;SDS011;16487;53.094;8.800;2022-09-24T11:44:38;43.00;;;35.00;;
29548;SDS011;16487;53.094;8.800;2022-09-24T11:47:21;40.50;;;33.67;;
29548;SDS011;16487;53.094;8.800;2022-09-24T11:50:05;49.67;;;37.97;;
29548;SDS011;16487;53.094;8.800;2022-09-24T11:52:50;39.60;;;35.10;;
29548;SDS011;16487;53.094;8.800;2022-09-24T11:55:22;40.87;;;33.20;;
29548;SDS011;16487;53.094;8.800;2022-09-24T11:57:59;44.17;;;36.00;;
29548;SDS011;16487;53.094;8.800;2022-09-24T12:00:39;39.37;;;34.00;;
29548;SDS011;16487;53.094;8.800;2022-09-24T12:03:13;37.80;;;32.57;;
29548;SDS011;16487;53.094;8.800;2022-09-24T12:05:52;36.23;;;30.70;;
29548;SDS011;16487;53.094;8.800;2022-09-24T12:08:24;39.23;;;32.73;;
29548;SDS011;16487;53.094;8.800;2022-09-24T12:10:57;45.00;;;35.97;;
29548;SDS011;16487;53.094;8.800;2022-09-24T12:13:31;42.93;;;35.20;;
29548;SDS011;16487;53.094;8.800;2022-09-24T12:16:04;42.33;;;35.13;;
29548;SDS011;16487;53.094;8.800;2022-09-24T12:18:34;40.37;;;33.33;;
29548;SDS011;16487;53.094;8.800;2022-09-24T12:21:07;42.97;;;34.97;;
29548;SDS011;16487;53.094;8.800;2022-09-24T12:23:38;42.40;;;34.77;;
29548;SDS011;16487;53.094;8.800;2022-09-24T12:26:09;42.60;;;35.97;;
29548;SDS011;16487;53.094;8.800;2022-09-24T12:28:41;38.40;;;31.93;;
29548;SDS011;16487;53.094;8.800;2022-09-24T12:31:16;40.27;;;32.50;;
29548;SDS011;16487;53.094;8.800;2022-09-24T12:33:51;36.10;;;30.43;;
29548;SDS011;16487;53.094;8.800;2022-09-24T12:36:27;36.83;;;29.77;;
29548;SDS011;16487;53.094;8.800;2022-09-24T12:39:01;37.77;;;30.50;;
29548;SDS011;16487;53.094;8.800;2022-09-24T12:41:33;39.60;;;32.17;;
29548;SDS011;16487;53.094;8.800;2022-09-24T12:44:04;33.20;;;29.60;;
29548;SDS011;16487;53.094;8.800;2022-09-24T12:46:38;30.47;;;27.20;;
29548;SDS011;16487;53.094;8.800;2022-09-24T12:49:14;32.17;;;27.60;;
29548;SDS011;16487;53.094;8.800;2022-09-24T12:51:50;33.13;;;27.37;;
29548;SDS011;16487;53.094;8.800;2022-09-24T12:54:21;31.73;;;27.57;;
29548;SDS011;16487;53.094;8.800;2022-09-24T12:56:51;31.30;;;27.80;;
29548;SDS011;16487;53.094;8.800;2022-09-24T12:59:30;28.33;;;25.30;;
29548;SDS011;16487;53.094;8.800;2022-09-24T13:02:05;27.97;;;25.07;;
29548;SDS011;16487;53.094;8.800;2022-09-24T13:04:33;30.03;;;26.60;;
29548;SDS011;16487;53.094;8.800;2022-09-24T13:07:01;27.60;;;24.60;;
29548;SDS011;16487;53.094;8.800;2022-09-24T13:09:32;28.33;;;24.90;;
29548;SDS011;16487;53.094;8.800;2022-09-24T13:12:04;28.53;;;25.00;;
29548;SDS011;16487;53.094;8.800;2022-09-24T13:14:47;27.67;;;24.83;;
29548;SDS011;16487;53.094;8.800;2022-09-24T13:17:19;28.97;;;25.70;;
29548;SDS011;16487;53.094;8.800;2022-09-24T13:19:47;32.87;;;29.37;;
29548;SDS011;16487;53.094;8.800;2022-09-24T13:22:24;27.80;;;25.00;;
29548;SDS011;16487;53.094;8.800;2022-09-24T13:25:04;28.37;;;25.30;;
29548;SDS011;16487;53.094;8.800;2022-09-24T13:27:55;27.80;;;24.80;;
29548;SDS011;16487;53.094;8.800;2022-09-24T13:30:32;29.67;;;25.20;;
29548;SDS011;16487;53.094;8.800;2022-09-24T13:33:12;29.27;;;25.90;;
29548;SDS011;16487;53.094;8.800;2022-09-24T13:35:46;34.10;;;27.97;;
29548;SDS011;16487;53.094;8.800;2022-09-24T13:38:24;31.20;;;27.77;;
29548;SDS011;16487;53.094;8.800;2022-09-24T13:40:58;31.23;;;24.83;;
29548;SDS011;16487;53.094;8.800;2022-09-24T13:43:34;33.83;;;28.23;;
29548;SDS011;16487;53.094;8.800;2022-09-24T13:46:06;32.37;;;26.07;;
29548;SDS011;16487;53.094;8.800;2022-09-24T13:48:40;34.50;;;28.90;;
29548;SDS011;16487;53.094;8.800;2022-09-24T13:51:14;35.90;;;29.37;;
29548;SDS011;16487;53.094;8.800;2022-09-24T13:53:43;35.33;;;29.10;;
29548;SDS011;16487;53.094;8.800;2022-09-24T13:56:17;33.10;;;28.03;;
29548;SDS011;16487;53.094;8.800;2022-09-24T13:58:47;37.07;;;32.20;;
29548;SDS011;16487;53.094;8.800;2022-09-24T14:01:15;38.23;;;30.40;;
29548;SDS011;16487;53.094;8.800;2022-09-24T14:03:52;36.07;;;29.60;;
29548;SDS011;16487;53.094;8.800;2022-09-24T14:06:28;38.23;;;32.57;;
29548;SDS011;16487;53.094;8.800;2022-09-24T14:08:59;41.40;;;32.50;;
29548;SDS011;16487;53.094;8.800;2022-09-24T14:11:26;49.43;;;39.37;;
29548;SDS011;16487;53.094;8.800;2022-09-24T14:13:55;64.37;;;51.47;;
29548;SDS011;16487;53.094;8.800;2022-09-24T14:16:23;44.77;;;35.93;;
29548;SDS011;16487;53.094;8.800;2022-09-24T14:18:59;41.40;;;32.27;;
29548;SDS011;16487;53.094;8.800;2022-09-24T14:21:29;36.10;;;30.53;;
29548;SDS011;16487;53.094;8.800;2022-09-24T14:24:01;37.67;;;31.57;;
29548;SDS011;16487;53.094;8.800;2022-09-24T14:26:32;41.73;;;28.50;;
29548;SDS011;16487;53.094;8.800;2022-09-24T14:29:05;33.33;;;29.77;;
29548;SDS011;16487;53.094;8.800;2022-09-24T14:31:41;32.87;;;29.23;;
29548;SDS011;16487;53.094;8.800;2022-09-24T14:34:18;35.73;;;31.70;;
29548;SDS011;16487;53.094;8.800;2022-09-24T14:36:51;32.17;;;28.67;;
29548;SDS011;16487;53.094;8.800;2022-09-24T14:39:19;34.40;;;29.93;;
29548;SDS011;16487;53.094;8.800;2022-09-24T14:41:51;33.30;;;28.63;;
29548;SDS011;16487;53.094;8.800;2022-09-24T14:44:21;32.93;;;29.37;;
29548;SDS011;16487;53.094;8.800;2022-09-24T14:46:52;30.60;;;27.40;;
29548;SDS011;16487;53.094;8.800;2022-09-24T14:49:23;31.97;;;27.77;;
29548;SDS011;16487;53.094;8.800;2022-09-24T14:51:54;35.13;;;26.67;;
29548;SDS011;16487;53.094;8.800;2022-09-24T14:54:27;28.60;;;25.50;;